createdAt,value
2019-05-15T00:00:41.000Z,35.5
2019-05-15T00:01:47.000Z,35.5
2019-05-15T00:02:54.000Z,35.5
2019-05-15T00:04:00.000Z,35.5
2019-05-15T00:05:06.000Z,35.5
2019-05-15T00:06:12.000Z,35.5
2019-05-15T00:07:18.000Z,35.5
2019-05-15T00:08:25.000Z,35.5
2019-05-15T00:09:31.000Z,35.5
2019-05-15T00:10:37.000Z,35.5
2019-05-15T00:11:43.000Z,35.6
2019-05-15T00:12:49.000Z,35.6
2019-05-15T00:13:55.000Z,35.5
2019-05-15T00:15:02.000Z,35.5
2019-05-15T00:16:08.000Z,35.6
2019-05-15T00:17:14.000Z,35.5
2019-05-15T00:18:20.000Z,35.5
2019-05-15T00:19:26.000Z,35.5
2019-05-15T00:20:32.000Z,35.6
2019-05-15T00:21:39.000Z,35.5
2019-05-15T00:22:45.000Z,35.5
2019-05-15T00:23:51.000Z,35.6
2019-05-15T00:24:57.000Z,35.6
2019-05-15T00:26:03.000Z,35.6
2019-05-15T00:27:10.000Z,35.6
2019-05-15T00:28:16.000Z,35.5
2019-05-15T00:29:22.000Z,35.6
2019-05-15T00:30:28.000Z,35.6
2019-05-15T00:31:34.000Z,35.5
2019-05-15T00:32:40.000Z,35.5
2019-05-15T00:33:47.000Z,35.5
2019-05-15T00:34:53.000Z,35.6
2019-05-15T00:35:59.000Z,35.6
2019-05-15T00:37:05.000Z,35.6
2019-05-15T00:38:11.000Z,35.6
2019-05-15T00:39:17.000Z,35.6
2019-05-15T00:40:24.000Z,35.6
2019-05-15T00:41:30.000Z,35.6
2019-05-15T00:42:36.000Z,35.6
2019-05-15T00:43:42.000Z,35.6
2019-05-15T00:44:48.000Z,35.6
2019-05-15T00:45:55.000Z,35.6
2019-05-15T00:47:01.000Z,35.6
2019-05-15T00:48:07.000Z,35.6
2019-05-15T00:49:13.000Z,35.6
2019-05-15T00:50:19.000Z,35.6
2019-05-15T00:51:25.000Z,35.6
2019-05-15T00:52:32.000Z,35.6
2019-05-15T00:53:38.000Z,35.6
2019-05-15T00:54:44.000Z,35.5
2019-05-15T00:55:50.000Z,35.6
2019-05-15T00:56:56.000Z,35.6
2019-05-15T00:58:02.000Z,35.6
2019-05-15T00:59:09.000Z,35.6
2019-05-15T01:00:15.000Z,35.5
2019-05-15T01:01:21.000Z,35.6
2019-05-15T01:02:27.000Z,35.6
2019-05-15T01:03:33.000Z,35.6
2019-05-15T01:04:40.000Z,35.5
2019-05-15T01:05:46.000Z,35.5
2019-05-15T01:06:52.000Z,35.5
2019-05-15T01:07:58.000Z,35.6
2019-05-15T01:09:04.000Z,35.5
2019-05-15T01:10:10.000Z,35.6
2019-05-15T01:11:17.000Z,35.5
2019-05-15T01:12:23.000Z,35.6
2019-05-15T01:13:29.000Z,35.6
2019-05-15T01:14:35.000Z,35.5
2019-05-15T01:15:41.000Z,35.6
2019-05-15T01:16:48.000Z,35.5
2019-05-15T01:17:54.000Z,35.6
2019-05-15T01:19:00.000Z,35.5
2019-05-15T01:20:06.000Z,35.5
2019-05-15T01:21:12.000Z,35.5
2019-05-15T01:22:18.000Z,35.5
2019-05-15T01:23:25.000Z,35.5
2019-05-15T01:24:31.000Z,35.5
2019-05-15T01:25:37.000Z,35.5
2019-05-15T01:26:43.000Z,35.5
2019-05-15T01:27:49.000Z,35.4
2019-05-15T01:28:55.000Z,35.4
2019-05-15T01:30:02.000Z,35.5
2019-05-15T01:31:08.000Z,35.5
2019-05-15T01:32:14.000Z,35.5
2019-05-15T01:33:20.000Z,35.5
2019-05-15T01:34:26.000Z,35.5
2019-05-15T01:35:33.000Z,35.5
2019-05-15T01:36:39.000Z,35.4
2019-05-15T01:37:45.000Z,35.4
2019-05-15T01:38:51.000Z,35.5
2019-05-15T01:39:57.000Z,35.5
2019-05-15T01:41:03.000Z,35.5
2019-05-15T01:42:10.000Z,35.5
2019-05-15T01:43:16.000Z,35.4
2019-05-15T01:44:22.000Z,35.4
2019-05-15T01:45:28.000Z,35.4
2019-05-15T01:46:34.000Z,35.4
2019-05-15T01:47:40.000Z,35.4
2019-05-15T01:48:47.000Z,35.4
2019-05-15T01:49:53.000Z,35.4
2019-05-15T01:50:59.000Z,35.4
2019-05-15T01:52:05.000Z,35.4
2019-05-15T01:53:11.000Z,35.4
2019-05-15T01:54:18.000Z,35.4
2019-05-15T01:55:24.000Z,35.4
2019-05-15T01:56:30.000Z,35.4
2019-05-15T01:57:36.000Z,35.5
2019-05-15T01:58:42.000Z,35.5
2019-05-15T01:59:48.000Z,35.5
2019-05-15T02:00:55.000Z,35.5
2019-05-15T02:02:01.000Z,35.4
2019-05-15T02:03:07.000Z,35.4
2019-05-15T02:04:13.000Z,35.5
2019-05-15T02:05:19.000Z,35.4
2019-05-15T02:06:25.000Z,35.4
2019-05-15T02:07:32.000Z,35.4
2019-05-15T02:08:38.000Z,35.4
2019-05-15T02:09:44.000Z,35.4
2019-05-15T02:10:50.000Z,35.4
2019-05-15T02:11:56.000Z,35.3
2019-05-15T02:13:03.000Z,35.3
2019-05-15T02:14:09.000Z,35.3
2019-05-15T02:15:15.000Z,35.3
2019-05-15T02:16:21.000Z,35.3
2019-05-15T02:17:27.000Z,35.3
2019-05-15T02:18:33.000Z,35.3
2019-05-15T02:19:40.000Z,35.3
2019-05-15T02:20:46.000Z,35.3
2019-05-15T02:21:52.000Z,35.4
2019-05-15T02:22:58.000Z,35.3
2019-05-15T02:24:04.000Z,35.3
2019-05-15T02:25:10.000Z,35.3
2019-05-15T02:26:17.000Z,35.3
2019-05-15T02:27:23.000Z,35.3
2019-05-15T02:28:29.000Z,35.3
2019-05-15T02:29:35.000Z,35.3
2019-05-15T02:30:41.000Z,35.3
2019-05-15T02:31:48.000Z,35.4
2019-05-15T02:32:54.000Z,35.3
2019-05-15T02:34:00.000Z,35.3
2019-05-15T02:35:06.000Z,35.4
2019-05-15T02:36:12.000Z,35.3
2019-05-15T02:37:18.000Z,35.3
2019-05-15T02:38:25.000Z,35.3
2019-05-15T02:39:31.000Z,35.3
2019-05-15T02:40:37.000Z,35.3
2019-05-15T02:41:43.000Z,35.3
2019-05-15T02:42:49.000Z,35.3
2019-05-15T02:43:55.000Z,35.3
2019-05-15T02:45:02.000Z,35.3
2019-05-15T02:46:08.000Z,35.3
2019-05-15T02:47:14.000Z,35.3
2019-05-15T02:48:20.000Z,35.3
2019-05-15T02:49:26.000Z,35.3
2019-05-15T02:50:33.000Z,35.3
2019-05-15T02:51:39.000Z,35.3
2019-05-15T02:52:45.000Z,35.3
2019-05-15T02:53:51.000Z,35.3
2019-05-15T02:54:57.000Z,35.3
2019-05-15T02:56:03.000Z,35.3
2019-05-15T02:57:10.000Z,35.3
2019-05-15T02:58:16.000Z,35.3
2019-05-15T02:59:22.000Z,35.2
2019-05-15T03:00:28.000Z,35.3
2019-05-15T03:01:34.000Z,35.2
2019-05-15T03:02:41.000Z,35.2
2019-05-15T03:03:47.000Z,35.2
2019-05-15T03:04:53.000Z,35.2
2019-05-15T03:05:59.000Z,35.3
2019-05-15T03:07:05.000Z,35.2
2019-05-15T03:08:11.000Z,35.2
2019-05-15T03:09:18.000Z,35.2
2019-05-15T03:10:24.000Z,35.2
2019-05-15T03:11:30.000Z,35.2
2019-05-15T03:12:36.000Z,35.3
2019-05-15T03:13:42.000Z,35.2
2019-05-15T03:14:48.000Z,35.1
2019-05-15T03:15:55.000Z,35.1
2019-05-15T03:17:01.000Z,35.1
2019-05-15T03:18:07.000Z,35.2
2019-05-15T03:19:13.000Z,35.1
2019-05-15T03:20:19.000Z,35.2
2019-05-15T03:21:26.000Z,35.2
2019-05-15T03:22:32.000Z,35.2
2019-05-15T03:23:38.000Z,35.2
2019-05-15T03:24:44.000Z,35.2
2019-05-15T03:25:50.000Z,35.2
2019-05-15T03:26:56.000Z,35.2
2019-05-15T03:28:03.000Z,35.3
2019-05-15T03:29:09.000Z,35.2
2019-05-15T03:30:15.000Z,35.2
2019-05-15T03:31:21.000Z,35.2
2019-05-15T03:32:27.000Z,35.2
2019-05-15T03:33:33.000Z,35.1
2019-05-15T03:34:40.000Z,35.2
2019-05-15T03:35:46.000Z,35.2
2019-05-15T03:36:52.000Z,35.1
2019-05-15T03:37:58.000Z,35.2
2019-05-15T03:39:04.000Z,35.1
2019-05-15T03:40:11.000Z,35.2
2019-05-15T03:41:17.000Z,35.2
2019-05-15T03:42:23.000Z,35.2
2019-05-15T03:43:29.000Z,35.2
2019-05-15T03:44:35.000Z,35.2
2019-05-15T03:45:41.000Z,35.2
2019-05-15T03:46:48.000Z,35.2
2019-05-15T03:47:54.000Z,35.2
2019-05-15T03:49:00.000Z,35.2
2019-05-15T03:50:06.000Z,35.1
2019-05-15T03:51:12.000Z,35.2
2019-05-15T03:52:18.000Z,35.1
2019-05-15T03:53:25.000Z,35.1
2019-05-15T03:54:31.000Z,35.1
2019-05-15T03:55:37.000Z,35.1
2019-05-15T03:56:43.000Z,35.1
2019-05-15T03:57:49.000Z,35.1
2019-05-15T03:58:56.000Z,35.1
2019-05-15T04:00:02.000Z,35.1
2019-05-15T04:01:08.000Z,35.1
2019-05-15T04:02:14.000Z,35.1
2019-05-15T04:03:20.000Z,35.1
2019-05-15T04:04:26.000Z,35.1
2019-05-15T04:05:33.000Z,35.1
2019-05-15T04:06:39.000Z,35.1
2019-05-15T04:07:45.000Z,35.1
2019-05-15T04:08:51.000Z,35.1
2019-05-15T04:09:57.000Z,35.1
2019-05-15T04:11:03.000Z,35.1
2019-05-15T04:12:10.000Z,35.1
2019-05-15T04:13:16.000Z,35.2
2019-05-15T04:14:22.000Z,35.1
2019-05-15T04:15:28.000Z,35.1
2019-05-15T04:16:34.000Z,35.1
2019-05-15T04:17:41.000Z,35.1
2019-05-15T04:18:47.000Z,35.1
2019-05-15T04:19:53.000Z,35.1
2019-05-15T04:20:59.000Z,35.2
2019-05-15T04:22:05.000Z,35.1
2019-05-15T04:23:11.000Z,35.1
2019-05-15T04:24:18.000Z,35.1
2019-05-15T04:25:24.000Z,35.1
2019-05-15T04:26:30.000Z,35.1
2019-05-15T04:27:36.000Z,35.2
2019-05-15T04:28:42.000Z,35.1
2019-05-15T04:29:49.000Z,35.1
2019-05-15T04:30:55.000Z,35.1
2019-05-15T04:32:01.000Z,35.1
2019-05-15T04:33:07.000Z,35.2
2019-05-15T04:34:13.000Z,35.2
2019-05-15T04:35:19.000Z,35.2
2019-05-15T04:36:26.000Z,35.2
2019-05-15T04:37:32.000Z,35.1
2019-05-15T04:38:38.000Z,35.3
2019-05-15T04:39:44.000Z,35.1
2019-05-15T04:40:50.000Z,35.2
2019-05-15T04:41:56.000Z,35.2
2019-05-15T04:43:03.000Z,35.3
2019-05-15T04:44:09.000Z,35.3
2019-05-15T04:45:15.000Z,35.3
2019-05-15T04:46:21.000Z,35.3
2019-05-15T04:47:27.000Z,35.3
2019-05-15T04:48:34.000Z,35.3
2019-05-15T04:49:40.000Z,35.4
2019-05-15T04:50:46.000Z,35.3
2019-05-15T04:51:52.000Z,35.4
2019-05-15T04:52:58.000Z,35.4
2019-05-15T04:54:04.000Z,35.4
2019-05-15T04:55:11.000Z,35.4
2019-05-15T04:56:17.000Z,35.4
2019-05-15T04:57:23.000Z,35.4
2019-05-15T04:58:29.000Z,35.4
2019-05-15T04:59:35.000Z,35.4
2019-05-15T05:00:41.000Z,35.5
2019-05-15T05:01:48.000Z,35.5
2019-05-15T05:02:54.000Z,35.4
2019-05-15T05:04:00.000Z,35.4
2019-05-15T05:05:06.000Z,35.5
2019-05-15T05:06:12.000Z,35.5
2019-05-15T05:07:19.000Z,35.6
2019-05-15T05:08:25.000Z,35.6
2019-05-15T05:09:31.000Z,35.6
2019-05-15T05:10:37.000Z,35.6
2019-05-15T05:11:43.000Z,35.6
2019-05-15T05:12:49.000Z,35.6
2019-05-15T05:13:56.000Z,35.6
2019-05-15T05:15:02.000Z,35.6
2019-05-15T05:16:08.000Z,35.6
2019-05-15T05:17:14.000Z,35.6
2019-05-15T05:18:20.000Z,35.6
2019-05-15T05:19:26.000Z,35.6
2019-05-15T05:20:33.000Z,35.6
2019-05-15T05:21:39.000Z,35.7
2019-05-15T05:22:45.000Z,35.7
2019-05-15T05:23:51.000Z,35.7
2019-05-15T05:26:04.000Z,35.7
2019-05-15T05:27:10.000Z,35.8
2019-05-15T05:28:16.000Z,35.8
2019-05-15T05:29:22.000Z,35.8
2019-05-15T05:30:28.000Z,35.8
2019-05-15T05:31:34.000Z,35.8
2019-05-15T05:32:41.000Z,35.8
2019-05-15T05:33:47.000Z,35.8
2019-05-15T05:34:53.000Z,35.9
2019-05-15T05:35:59.000Z,35.8
2019-05-15T05:37:05.000Z,35.8
2019-05-15T05:38:11.000Z,35.9
2019-05-15T05:39:18.000Z,35.9
2019-05-15T05:40:24.000Z,35.9
2019-05-15T05:41:30.000Z,35.9
2019-05-15T05:42:36.000Z,35.9
2019-05-15T05:43:42.000Z,35.9
2019-05-15T05:44:49.000Z,35.9
2019-05-15T05:45:55.000Z,35.9
2019-05-15T05:47:01.000Z,35.9
2019-05-15T05:48:07.000Z,36
2019-05-15T05:49:13.000Z,35.9
2019-05-15T05:50:19.000Z,35.8
2019-05-15T05:51:26.000Z,35.8
2019-05-15T05:52:32.000Z,35.9
2019-05-15T05:53:38.000Z,35.8
2019-05-15T05:54:44.000Z,35.8
2019-05-15T05:55:50.000Z,35.8
2019-05-15T05:56:57.000Z,35.8
2019-05-15T05:58:03.000Z,35.8
2019-05-15T05:59:09.000Z,35.8
2019-05-15T06:00:15.000Z,35.8
2019-05-15T06:01:21.000Z,35.7
2019-05-15T06:02:27.000Z,35.8
2019-05-15T06:03:34.000Z,35.7
2019-05-15T06:04:40.000Z,35.6
2019-05-15T06:05:46.000Z,35.6
2019-05-15T06:06:52.000Z,35.6
2019-05-15T06:07:58.000Z,35.6
2019-05-15T06:09:04.000Z,35.6
2019-05-15T06:10:11.000Z,35.5
2019-05-15T06:11:17.000Z,35.6
2019-05-15T06:12:23.000Z,35.5
2019-05-15T06:13:29.000Z,35.5
2019-05-15T06:14:35.000Z,35.5
2019-05-15T06:15:42.000Z,35.5
2019-05-15T06:16:48.000Z,35.5
2019-05-15T06:17:54.000Z,35.4
2019-05-15T06:19:00.000Z,35.4
2019-05-15T06:20:06.000Z,35.4
2019-05-15T06:21:12.000Z,35.4
2019-05-15T06:22:19.000Z,35.4
2019-05-15T06:23:25.000Z,35.4
2019-05-15T06:24:31.000Z,35.4
2019-05-15T06:25:37.000Z,35.4
2019-05-15T06:26:43.000Z,35.4
2019-05-15T06:27:49.000Z,35.4
2019-05-15T06:28:56.000Z,35.4
2019-05-15T06:30:02.000Z,35.4
2019-05-15T06:31:08.000Z,35.4
2019-05-15T06:32:14.000Z,35.4
2019-05-15T06:33:20.000Z,35.5
2019-05-15T06:34:27.000Z,35.5
2019-05-15T06:35:33.000Z,35.5
2019-05-15T06:36:39.000Z,35.6
2019-05-15T06:37:45.000Z,35.5
2019-05-15T06:38:51.000Z,35.4
2019-05-15T06:39:57.000Z,35.5
2019-05-15T06:41:04.000Z,35.4
2019-05-15T06:42:10.000Z,35.4
2019-05-15T06:43:16.000Z,35.4
2019-05-15T06:44:22.000Z,35.4
2019-05-15T06:45:28.000Z,35.4
2019-05-15T06:46:34.000Z,35.4
2019-05-15T06:47:41.000Z,35.4
2019-05-15T06:48:47.000Z,35.4
2019-05-15T06:49:53.000Z,35.3
2019-05-15T06:50:59.000Z,35.3
2019-05-15T06:52:05.000Z,35.3
2019-05-15T06:53:12.000Z,35.3
2019-05-15T06:54:18.000Z,35.3
2019-05-15T06:55:24.000Z,35.3
2019-05-15T06:56:30.000Z,35.2
2019-05-15T06:57:36.000Z,35.1
2019-05-15T06:58:42.000Z,35.2
2019-05-15T06:59:49.000Z,35.2
2019-05-15T07:00:55.000Z,35.2
2019-05-15T07:02:01.000Z,35.1
2019-05-15T07:03:07.000Z,35.1
2019-05-15T07:04:13.000Z,35.1
2019-05-15T07:05:19.000Z,35
2019-05-15T07:06:26.000Z,35
2019-05-15T07:07:32.000Z,35
2019-05-15T07:10:50.000Z,35
2019-05-15T07:11:57.000Z,35
2019-05-15T07:13:03.000Z,35
2019-05-15T07:14:09.000Z,35
2019-05-15T07:15:15.000Z,35
2019-05-15T07:16:21.000Z,35
2019-05-15T07:17:27.000Z,35
2019-05-15T07:18:34.000Z,35
2019-05-15T07:19:40.000Z,35
2019-05-15T07:20:46.000Z,34.9
2019-05-15T07:21:52.000Z,34.9
2019-05-15T07:22:58.000Z,34.9
2019-05-15T07:24:05.000Z,34.9
2019-05-15T07:25:11.000Z,34.9
2019-05-15T07:26:17.000Z,34.8
2019-05-15T07:27:23.000Z,34.8
2019-05-15T07:28:29.000Z,34.8
2019-05-15T07:29:35.000Z,34.8
2019-05-15T07:30:42.000Z,34.9
2019-05-15T07:31:48.000Z,34.9
2019-05-15T07:32:54.000Z,34.9
2019-05-15T07:34:00.000Z,34.9
2019-05-15T07:35:06.000Z,34.9
2019-05-15T07:36:12.000Z,34.9
2019-05-15T07:37:19.000Z,34.8
2019-05-15T07:38:25.000Z,34.8
2019-05-15T07:39:31.000Z,34.8
2019-05-15T07:40:37.000Z,34.8
2019-05-15T07:41:43.000Z,34.8
2019-05-15T07:42:50.000Z,34.8
2019-05-15T07:43:56.000Z,34.8
2019-05-15T07:45:02.000Z,34.8
2019-05-15T07:46:08.000Z,34.8
2019-05-15T07:47:14.000Z,34.8
2019-05-15T07:48:20.000Z,34.8
2019-05-15T07:49:27.000Z,34.7
2019-05-15T07:50:33.000Z,34.7
2019-05-15T07:51:39.000Z,34.7
2019-05-15T07:52:45.000Z,34.7
2019-05-15T07:53:51.000Z,34.7
2019-05-15T07:54:57.000Z,34.7
2019-05-15T07:56:04.000Z,34.6
2019-05-15T08:23:08.000Z,34.3
2019-05-15T08:25:21.000Z,45.5
2019-05-15T08:26:28.000Z,44.3
2019-05-15T08:27:34.000Z,44.3
2019-05-15T08:30:54.000Z,43.8
2019-05-15T08:34:13.000Z,45.5
2019-05-15T08:35:19.000Z,46
2019-05-15T08:37:32.000Z,46.4
2019-05-15T08:38:39.000Z,46.9
2019-05-15T08:39:45.000Z,46.9
2019-05-15T08:41:58.000Z,47.9
2019-05-15T08:43:05.000Z,48
2019-05-15T08:46:24.000Z,47.8
2019-05-15T08:47:30.000Z,48.3
2019-05-15T08:51:56.000Z,48.7
2019-05-15T08:53:03.000Z,48.5
2019-05-15T08:54:09.000Z,48.5
2019-05-15T08:55:16.000Z,48.5
2019-05-15T08:56:22.000Z,48.5
2019-05-15T08:58:35.000Z,48.6
2019-05-15T09:00:48.000Z,49.1
2019-05-15T09:58:54.000Z,37.3
2019-05-15T10:00:00.000Z,37.5
2019-05-15T10:01:06.000Z,38
2019-05-15T10:02:13.000Z,38.2
2019-05-15T10:03:19.000Z,38.4
2019-05-15T10:04:25.000Z,38.5
2019-05-15T10:05:31.000Z,38.6
2019-05-15T10:06:37.000Z,38.6
2019-05-15T10:07:44.000Z,38.6
2019-05-15T10:08:50.000Z,38.3
2019-05-15T10:09:56.000Z,38.6
2019-05-15T10:11:02.000Z,38.5
2019-05-15T10:12:08.000Z,38.3
2019-05-15T10:13:14.000Z,38.5
2019-05-15T10:14:21.000Z,38.5
2019-05-15T10:15:27.000Z,38.6
2019-05-15T10:16:33.000Z,38.5
2019-05-15T10:17:39.000Z,38.3
2019-05-15T10:18:45.000Z,38.5
2019-05-15T10:19:51.000Z,38.5
2019-05-15T10:20:58.000Z,38.3
2019-05-15T10:22:04.000Z,38.3
2019-05-15T10:23:10.000Z,38.3
2019-05-15T10:24:16.000Z,38.3
2019-05-15T10:25:22.000Z,38.3
2019-05-15T10:26:29.000Z,38.1
2019-05-15T10:27:35.000Z,38.3
2019-05-15T10:28:41.000Z,38.3
2019-05-15T10:29:47.000Z,38.3
2019-05-15T10:30:53.000Z,38.1
2019-05-15T10:31:59.000Z,38
2019-05-15T10:33:06.000Z,38.1
2019-05-15T10:34:12.000Z,38
2019-05-15T10:35:18.000Z,38
2019-05-15T10:36:24.000Z,38.1
2019-05-15T10:37:30.000Z,38.1
2019-05-15T10:38:36.000Z,38.2
2019-05-15T10:39:43.000Z,38
2019-05-15T10:40:49.000Z,38
2019-05-15T10:41:55.000Z,37.9
2019-05-15T10:43:01.000Z,38
2019-05-15T10:44:07.000Z,38.1
2019-05-15T10:45:14.000Z,37.9
2019-05-15T10:46:20.000Z,38
2019-05-15T10:47:26.000Z,37.9
2019-05-15T10:48:32.000Z,37.9
2019-05-15T10:49:38.000Z,37.9
2019-05-15T10:50:44.000Z,38.3
2019-05-15T10:51:51.000Z,37.9
2019-05-15T10:52:57.000Z,38.1
2019-05-15T10:54:03.000Z,38.1
2019-05-15T10:55:09.000Z,38
2019-05-15T10:56:15.000Z,38.1
2019-05-15T10:57:21.000Z,38
2019-05-15T10:58:28.000Z,38
2019-05-15T10:59:34.000Z,38.1
2019-05-15T11:00:40.000Z,38.1
2019-05-15T11:01:46.000Z,38.1
2019-05-15T11:02:52.000Z,38
2019-05-15T11:03:59.000Z,38.1
2019-05-15T11:05:05.000Z,38.1
2019-05-15T11:06:11.000Z,37.8
2019-05-15T11:07:17.000Z,37.8
2019-05-15T11:08:23.000Z,38
2019-05-15T11:09:29.000Z,37.8
2019-05-15T11:10:36.000Z,37.6
2019-05-15T11:11:42.000Z,37.9
2019-05-15T11:12:48.000Z,38
2019-05-15T11:13:54.000Z,37.8
2019-05-15T11:15:00.000Z,37.8
2019-05-15T11:16:06.000Z,37.9
2019-05-15T11:17:13.000Z,37.8
2019-05-15T11:18:19.000Z,37.8
2019-05-15T11:19:25.000Z,37.9
2019-05-15T11:20:31.000Z,37.6
2019-05-15T11:21:37.000Z,37.6
2019-05-15T11:22:44.000Z,38.1
2019-05-15T11:23:50.000Z,38.1
2019-05-15T11:24:56.000Z,38.1
2019-05-15T11:26:02.000Z,38.1
2019-05-15T11:27:08.000Z,38.1
2019-05-15T11:28:14.000Z,37.5
2019-05-15T11:29:21.000Z,38.1
2019-05-15T11:30:27.000Z,38.3
2019-05-15T11:31:33.000Z,38
2019-05-15T11:32:39.000Z,37.8
2019-05-15T11:33:45.000Z,38
2019-05-15T11:34:51.000Z,38
2019-05-15T11:35:58.000Z,37.9
2019-05-15T11:37:04.000Z,38.3
2019-05-15T11:38:10.000Z,38.3
2019-05-15T11:39:16.000Z,38.3
2019-05-15T11:40:22.000Z,38.1
2019-05-15T11:41:29.000Z,38.1
2019-05-15T11:42:35.000Z,38.1
2019-05-15T11:43:41.000Z,38.5
2019-05-15T11:44:47.000Z,38.3
2019-05-15T11:45:53.000Z,38.3
2019-05-15T11:46:59.000Z,38.3
2019-05-15T11:48:06.000Z,38.5
2019-05-15T11:49:12.000Z,38.5
2019-05-15T11:50:18.000Z,38.5
2019-05-15T11:51:24.000Z,38.3
2019-05-15T11:52:30.000Z,38.5
2019-05-15T11:53:36.000Z,38.5
2019-05-15T11:54:43.000Z,38.6
2019-05-15T11:55:49.000Z,38.5
2019-05-15T11:56:55.000Z,38.1
2019-05-15T11:58:01.000Z,38.6
2019-05-15T11:59:07.000Z,38.5
2019-05-15T12:00:14.000Z,38.5
2019-05-15T12:01:20.000Z,38.3
2019-05-15T12:02:26.000Z,38.3
2019-05-15T12:03:32.000Z,38.3
2019-05-15T12:04:38.000Z,38.3
2019-05-15T12:05:44.000Z,38.5
2019-05-15T12:06:51.000Z,38.5
2019-05-15T12:07:57.000Z,38.3
2019-05-15T12:09:03.000Z,38.3
2019-05-15T12:10:09.000Z,38.3
2019-05-15T12:11:15.000Z,38.5
2019-05-15T12:12:22.000Z,38.5
2019-05-15T12:13:28.000Z,38.1
2019-05-15T12:14:34.000Z,38.3
2019-05-15T12:15:40.000Z,38.5
2019-05-15T12:16:46.000Z,38.5
2019-05-15T12:17:52.000Z,38.3
2019-05-15T12:18:59.000Z,38.5
2019-05-15T12:20:05.000Z,38.3
2019-05-15T12:21:11.000Z,38.1
2019-05-15T12:22:17.000Z,38.5
2019-05-15T12:23:23.000Z,38.5
2019-05-15T12:24:29.000Z,38.5
2019-05-15T12:25:36.000Z,38.5
2019-05-15T12:26:42.000Z,38.5
2019-05-15T12:27:48.000Z,38.5
2019-05-15T12:28:54.000Z,38.5
2019-05-15T12:30:00.000Z,38.5
2019-05-15T12:31:07.000Z,38.5
2019-05-15T12:32:13.000Z,38.5
2019-05-15T12:33:19.000Z,38.5
2019-05-15T12:34:25.000Z,38.5
2019-05-15T12:35:31.000Z,38.6
2019-05-15T12:36:37.000Z,38.6
2019-05-15T12:37:44.000Z,38.6
2019-05-15T12:38:50.000Z,38.8
2019-05-15T12:39:56.000Z,38.5
2019-05-15T12:41:02.000Z,38.5
2019-05-15T12:42:08.000Z,38.5
2019-05-15T12:43:14.000Z,38.5
2019-05-15T12:44:21.000Z,38.5
2019-05-15T12:45:27.000Z,38.5
2019-05-15T12:46:33.000Z,38.6
2019-05-15T12:47:39.000Z,38.5
2019-05-15T12:48:45.000Z,38.5
2019-05-15T12:49:52.000Z,38.5
2019-05-15T12:50:58.000Z,38.5
2019-05-15T12:52:04.000Z,38.5
2019-05-15T14:00:27.000Z,39.3
2019-05-15T14:01:33.000Z,39.3
2019-05-15T14:02:39.000Z,39
2019-05-15T14:03:45.000Z,39
2019-05-15T14:04:52.000Z,38.8
2019-05-15T14:05:58.000Z,38.8
2019-05-15T14:07:04.000Z,38.8
2019-05-15T14:08:10.000Z,38.8
2019-05-15T14:09:16.000Z,39
2019-05-15T14:10:22.000Z,38.8
2019-05-15T14:11:29.000Z,38.5
2019-05-15T14:12:35.000Z,38.6
2019-05-15T14:13:41.000Z,38.6
2019-05-15T14:14:47.000Z,38.6
2019-05-15T14:15:53.000Z,38.6
2019-05-15T14:17:00.000Z,38.5
2019-05-15T14:18:06.000Z,38.5
2019-05-15T14:19:12.000Z,38.6
2019-05-15T14:20:18.000Z,38.6
2019-05-15T14:21:24.000Z,38.6
2019-05-15T14:22:30.000Z,38.6
2019-05-15T14:23:37.000Z,38.6
2019-05-15T14:24:43.000Z,38.6
2019-05-15T14:25:49.000Z,38.6
2019-05-15T14:26:55.000Z,38.8
2019-05-15T14:28:01.000Z,38.6
2019-05-15T14:29:07.000Z,38.8
2019-05-15T14:30:14.000Z,38.6
2019-05-15T14:31:20.000Z,38.8
2019-05-15T14:32:26.000Z,38.8
2019-05-15T14:33:32.000Z,38.8
2019-05-15T14:34:38.000Z,39
2019-05-15T14:35:45.000Z,38.8
2019-05-15T14:36:51.000Z,38.8
2019-05-15T14:37:57.000Z,38.8
2019-05-15T14:39:03.000Z,38.6
2019-05-15T14:40:09.000Z,38.8
2019-05-15T14:41:15.000Z,38.3
2019-05-15T14:42:22.000Z,38.6
2019-05-15T14:43:28.000Z,38.5
2019-05-15T14:44:34.000Z,38.8
2019-05-15T14:45:40.000Z,38.5
2019-05-15T14:46:46.000Z,38.5
2019-05-15T14:47:52.000Z,38.5
2019-05-15T14:48:59.000Z,38.8
2019-05-15T14:50:05.000Z,38.8
2019-05-15T14:51:11.000Z,38.8
2019-05-15T14:52:17.000Z,39
2019-05-15T14:53:23.000Z,39
2019-05-15T14:54:30.000Z,39
2019-05-15T14:55:36.000Z,39
2019-05-15T14:56:42.000Z,39
2019-05-15T14:57:48.000Z,39
2019-05-15T14:58:54.000Z,39
2019-05-15T15:00:00.000Z,39
2019-05-15T15:01:07.000Z,39
2019-05-15T15:02:13.000Z,39
2019-05-15T15:03:19.000Z,39
2019-05-15T15:04:25.000Z,39
2019-05-15T15:05:31.000Z,38.8
2019-05-15T15:06:37.000Z,38.8
2019-05-15T15:07:44.000Z,38.8
2019-05-15T15:08:50.000Z,38.8
2019-05-15T15:09:56.000Z,38.8
2019-05-15T15:11:02.000Z,38.8
2019-05-15T15:12:08.000Z,38.8
2019-05-15T15:13:15.000Z,38.8
2019-05-15T15:14:21.000Z,38.8
2019-05-15T15:15:27.000Z,38.8
2019-05-15T15:16:33.000Z,38.8
2019-05-15T15:17:39.000Z,38.6
2019-05-15T15:18:45.000Z,38.6
2019-05-15T15:19:52.000Z,38.6
2019-05-15T15:20:58.000Z,38.5
2019-05-15T15:22:04.000Z,38.6
2019-05-15T15:23:10.000Z,38.8
2019-05-15T15:24:16.000Z,38.5
2019-05-15T15:25:22.000Z,38.8
2019-05-15T15:26:29.000Z,38.5
2019-05-15T15:27:35.000Z,38.8
2019-05-15T15:28:41.000Z,39
2019-05-15T15:29:47.000Z,38.8
2019-05-15T15:30:53.000Z,38.8
2019-05-15T15:32:00.000Z,38.8
2019-05-15T15:33:06.000Z,38.8
2019-05-15T15:34:12.000Z,38.8
2019-05-15T15:35:18.000Z,38.8
2019-05-15T15:36:24.000Z,38.6
2019-05-15T15:37:30.000Z,38.8
2019-05-15T15:38:37.000Z,39
2019-05-15T15:39:43.000Z,38.8
2019-05-15T15:40:49.000Z,38.8
2019-05-15T15:41:55.000Z,38.6
2019-05-15T15:43:01.000Z,38.8
2019-05-15T15:44:08.000Z,38.8
2019-05-15T15:45:14.000Z,39
2019-05-15T15:46:20.000Z,39
2019-05-15T15:47:26.000Z,39
2019-05-15T15:48:32.000Z,39.1
2019-05-15T15:49:38.000Z,39
2019-05-15T15:50:45.000Z,39
2019-05-15T15:51:51.000Z,39
2019-05-15T15:52:57.000Z,39
2019-05-15T15:54:03.000Z,39
2019-05-15T15:55:09.000Z,39.1
2019-05-15T15:56:15.000Z,39
2019-05-15T15:57:22.000Z,39.1
2019-05-15T15:58:28.000Z,39
2019-05-15T15:59:34.000Z,39
2019-05-15T16:00:40.000Z,39.1
2019-05-15T16:01:46.000Z,39
2019-05-15T16:02:53.000Z,39
2019-05-15T16:03:59.000Z,39
2019-05-15T16:05:05.000Z,39
2019-05-15T16:06:11.000Z,39
2019-05-15T16:07:17.000Z,38.8
2019-05-15T16:08:23.000Z,38.8
2019-05-15T16:09:30.000Z,38.8
2019-05-15T16:10:36.000Z,38.8
2019-05-15T16:11:42.000Z,38.8
2019-05-15T16:12:48.000Z,38.5
2019-05-15T16:13:54.000Z,38.8
2019-05-15T16:15:00.000Z,38.8
2019-05-15T16:16:07.000Z,38.8
2019-05-15T16:17:13.000Z,38.8
2019-05-15T16:18:19.000Z,38.8
2019-05-15T16:19:25.000Z,38.5
2019-05-15T16:20:31.000Z,38.8
2019-05-15T16:21:38.000Z,38.8
2019-05-15T16:22:44.000Z,38.6
2019-05-15T16:23:50.000Z,38.8
2019-05-15T16:24:56.000Z,38.8
2019-05-15T16:26:02.000Z,38.6
2019-05-15T16:27:08.000Z,38.6
2019-05-15T16:28:15.000Z,38.6
2019-05-15T16:29:21.000Z,38.8
2019-05-15T16:30:27.000Z,38.8
2019-05-15T16:31:33.000Z,38.6
2019-05-15T16:32:39.000Z,39
2019-05-15T16:33:45.000Z,38.8
2019-05-15T16:34:52.000Z,39
2019-05-15T16:35:58.000Z,38.8
2019-05-15T16:37:04.000Z,38.8
2019-05-15T16:38:10.000Z,38.8
2019-05-15T16:39:16.000Z,38.8
2019-05-15T16:40:23.000Z,39
2019-05-15T16:41:29.000Z,38.8
2019-05-15T16:42:35.000Z,39
2019-05-15T16:43:41.000Z,38.8
2019-05-15T16:44:47.000Z,38.8
2019-05-15T16:45:53.000Z,39
2019-05-15T16:47:00.000Z,38.8
2019-05-15T16:48:06.000Z,38.8
2019-05-15T16:49:12.000Z,38.8
2019-05-15T16:50:18.000Z,38.8
2019-05-15T16:51:24.000Z,38.8
2019-05-15T16:52:30.000Z,38.8
2019-05-15T16:53:37.000Z,38.8
2019-05-15T16:54:43.000Z,38.8
2019-05-15T16:55:49.000Z,38.8
2019-05-15T16:56:55.000Z,38.6
2019-05-15T16:58:01.000Z,38.8
2019-05-15T16:59:08.000Z,38.8
2019-05-15T17:00:14.000Z,38.6
2019-05-15T17:01:20.000Z,38.8
2019-05-15T17:02:26.000Z,38.8
2019-05-15T17:03:32.000Z,38.8
2019-05-15T17:04:38.000Z,38.6
2019-05-15T17:05:45.000Z,38.6
2019-05-15T17:06:51.000Z,38.6
2019-05-15T17:07:57.000Z,38.6
2019-05-15T17:09:03.000Z,38.8
2019-05-15T17:10:09.000Z,38.8
2019-05-15T17:11:16.000Z,38.8
2019-05-15T17:12:22.000Z,38.6
2019-05-15T17:13:28.000Z,38.6
2019-05-15T17:14:34.000Z,38.6
2019-05-15T17:15:40.000Z,38.5
2019-05-15T17:16:46.000Z,38.6
2019-05-15T17:17:53.000Z,38.5
2019-05-15T17:18:59.000Z,38.6
2019-05-15T17:20:05.000Z,38.6
2019-05-15T17:21:11.000Z,38.5
2019-05-15T17:22:17.000Z,38.5
2019-05-15T17:23:23.000Z,38.8
2019-05-15T17:24:30.000Z,38.5
2019-05-15T17:25:36.000Z,38.6
2019-05-15T17:26:42.000Z,38.6
2019-05-15T17:27:48.000Z,38.8
2019-05-15T17:28:54.000Z,38.6
2019-05-15T17:30:01.000Z,38.5
2019-05-15T17:31:07.000Z,38.1
2019-05-15T17:32:13.000Z,38.6
2019-05-15T17:33:19.000Z,38.5
2019-05-15T17:34:25.000Z,38.5
2019-05-15T17:35:31.000Z,38.8